Time;durP1;ratioP1;P1;durP2;ratioP2;P2;SDS_P1;SDS_P2;PMS_P1;PMS_P2;Temp;Humidity;BMP_temperature;BMP_pressure;BME280_temperature;BME280_humidity;BME280_pressure;Samples;Min_cycle;Max_cycle;Signal;HPM_P1;HPM_P2
2021/08/29 00:01:16;;;;;;;7.07;2.47;;;;;;;17.20;67.10;102297.72;5022504;28;20309;-74
2021/08/29 00:03:42;;;;;;;9.98;3.28;;;;;;;16.61;71.52;102294.97;5039718;28;20052;-74
2021/08/29 00:06:07;;;;;;;8.68;2.50;;;;;;;17.07;68.90;102287.66;5040455;28;20237;-74
2021/08/29 00:08:32;;;;;;;2.67;1.77;;;;;;;18.07;64.02;102282.13;5040038;28;20045;-74
2021/08/29 00:10:58;;;;;;;2.50;1.60;;;;;;;17.59;65.48;102278.22;5040534;28;20037;-74
2021/08/29 00:13:23;;;;;;;2.28;1.70;;;;;;;18.51;62.01;102278.19;5039980;28;20370;-74
2021/08/29 00:15:49;;;;;;;6.82;3.15;;;;;;;17.93;65.16;102285.44;5040458;28;20232;-74
2021/08/29 00:18:14;;;;;;;5.10;1.95;;;;;;;17.76;64.57;102283.59;5040210;28;20029;-74
2021/08/29 00:20:39;;;;;;;6.65;2.95;;;;;;;17.04;69.92;102277.22;5039019;28;20046;-74
2021/08/29 00:23:05;;;;;;;3.17;1.70;;;;;;;17.91;64.30;102274.06;5041392;28;20041;-74
2021/08/29 00:25:30;;;;;;;1.75;1.65;;;;;;;18.19;63.34;102275.34;5043814;28;20063;-74
2021/08/29 00:27:56;;;;;;;8.95;2.65;;;;;;;18.00;63.81;102273.63;5043169;28;20033;-74
2021/08/29 00:30:21;;;;;;;3.28;1.88;;;;;;;17.91;64.30;102271.41;5043662;28;20333;-74
2021/08/29 00:32:47;;;;;;;3.10;2.22;;;;;;;18.26;63.07;102273.25;5043072;28;20040;-74
2021/08/29 00:35:12;;;;;;;7.60;2.80;;;;;;;17.14;68.37;102279.47;5042674;28;20299;-74
2021/08/29 00:37:37;;;;;;;8.23;2.30;;;;;;;17.99;63.71;102273.69;5044005;28;20398;-74
2021/08/29 00:40:04;;;;;;;2.33;1.40;;;;;;;18.30;62.45;102277.47;5044439;28;20039;-73
2021/08/29 00:42:30;;;;;;;3.65;2.03;;;;;;;18.36;62.10;102280.69;5042345;28;20041;-74
2021/08/29 00:44:55;;;;;;;9.02;2.75;;;;;;;17.56;66.39;102275.75;5042959;28;20075;-74
2021/08/29 00:47:20;;;;;;;8.60;1.83;;;;;;;18.02;63.67;102277.03;5043196;28;20108;-74
2021/08/29 00:49:46;;;;;;;4.85;2.08;;;;;;;18.38;62.56;102270.00;5042954;28;20037;-74
2021/08/29 00:52:11;;;;;;;3.90;2.33;;;;;;;18.05;63.72;102280.50;5043560;28;20025;-74
2021/08/29 00:54:37;;;;;;;3.10;1.63;;;;;;;18.10;63.45;102281.13;5043491;28;20025;-74
2021/08/29 00:57:05;;;;;;;10.02;3.55;;;;;;;17.06;67.86;102278.03;5044072;28;20030;-73
2021/08/29 00:59:31;;;;;;;4.68;2.40;;;;;;;17.75;65.11;102281.88;5025704;28;20033;-74
2021/08/29 01:05:06;;;;;;;6.75;2.55;;;;;;;16.75;68.42;102277.63;5041291;28;20044;-74
2021/08/29 01:07:58;;;;;;;3.72;2.40;;;;;;;17.61;64.85;102274.59;5042985;28;20105;-74
2021/08/29 01:10:31;;;;;;;2.63;1.80;;;;;;;18.07;63.36;102270.69;5040880;28;20081;-74
2021/08/29 01:12:56;;;;;;;6.93;2.60;;;;;;;16.77;67.90;102270.47;5041361;28;20036;-74
2021/08/29 01:15:22;;;;;;;3.13;1.90;;;;;;;17.55;65.29;102277.53;5041062;28;20037;-74
2021/08/29 01:17:48;;;;;;;3.97;2.17;;;;;;;17.89;63.40;102265.34;5040942;28;20037;-74
2021/08/29 01:20:20;;;;;;;3.38;1.67;;;;;;;17.86;64.27;102269.94;5041996;28;20041;-73
2021/08/29 01:22:45;;;;;;;5.03;2.13;;;;;;;17.91;63.44;102262.63;5009998;28;20029;-74
2021/08/29 01:25:12;;;;;;;3.47;2.60;;;;;;;17.79;63.68;102259.63;5041895;28;20392;-74
2021/08/29 01:28:09;;;;;;;3.75;1.77;;;;;;;18.38;61.75;102260.22;5025790;28;20094;-74
2021/08/29 01:30:34;;;;;;;5.90;3.05;;;;;;;17.59;63.68;102262.34;5041012;28;20053;-74
2021/08/29 01:33:00;;;;;;;2.90;1.63;;;;;;;18.38;61.50;102254.94;5043119;28;20068;-74
2021/08/29 01:35:25;;;;;;;5.68;2.38;;;;;;;18.20;61.83;102267.31;5040923;28;20368;-74
2021/08/29 01:37:51;;;;;;;7.70;2.88;;;;;;;17.70;62.96;102267.13;5041824;28;20021;-74
2021/08/29 01:40:17;;;;;;;4.30;1.95;;;;;;;17.72;63.94;102266.13;5041379;28;20041;-74
2021/08/29 01:42:42;;;;;;;3.17;2.08;;;;;;;17.39;63.77;102273.88;5041752;28;20071;-74
2021/08/29 01:45:09;;;;;;;3.63;1.80;;;;;;;17.97;63.13;102262.31;5041585;28;20056;-74
2021/08/29 01:47:34;;;;;;;8.10;2.70;;;;;;;17.32;64.99;102265.38;5041305;28;20110;-74
2021/08/29 01:49:59;;;;;;;2.25;1.83;;;;;;;17.57;64.52;102261.56;5042740;28;20037;-74
2021/08/29 01:52:25;;;;;;;5.40;2.72;;;;;;;16.85;65.54;102271.03;5024504;28;20021;-73
2021/08/29 01:54:50;;;;;;;1.90;1.80;;;;;;;17.82;63.56;102262.09;5042586;28;20041;-73
2021/08/29 01:57:16;;;;;;;4.45;2.60;;;;;;;17.19;64.59;102264.22;5040852;28;20320;-74
2021/08/29 01:59:43;;;;;;;3.50;1.67;;;;;;;17.53;64.65;102274.09;5042496;28;20225;-74
2021/08/29 02:02:08;;;;;;;7.65;2.85;;;;;;;17.02;64.99;102271.13;5041340;28;20053;-74
2021/08/29 02:04:34;;;;;;;4.75;2.42;;;;;;;17.31;65.08;102271.59;5041038;28;20064;-74
2021/08/29 02:07:08;;;;;;;6.53;2.28;;;;;;;16.80;66.73;102273.00;5041293;28;20029;-74
2021/08/29 02:09:34;;;;;;;6.95;3.17;;;;;;;16.62;66.32;102279.94;5040712;28;20044;-74
2021/08/29 02:11:59;;;;;;;5.03;2.53;;;;;;;17.20;64.86;102271.22;5041310;28;20033;-74
2021/08/29 02:14:26;;;;;;;2.10;1.88;;;;;;;17.46;64.62;102280.59;5040728;28;20045;-74
2021/08/29 02:16:52;;;;;;;6.15;3.05;;;;;;;17.74;63.27;102274.88;5042456;28;20018;-74
2021/08/29 02:19:19;;;;;;;7.55;2.97;;;;;;;16.96;66.06;102278.50;5040902;28;20051;-74
2021/08/29 02:21:45;;;;;;;5.05;2.28;;;;;;;17.46;64.57;102272.66;5041083;28;20067;-74
2021/08/29 02:24:10;;;;;;;8.35;3.05;;;;;;;17.28;64.52;102271.72;5040890;28;20053;-74
2021/08/29 02:26:37;;;;;;;4.53;2.55;;;;;;;17.13;65.29;102278.59;5040780;28;20025;-74
2021/08/29 02:29:02;;;;;;;5.90;2.83;;;;;;;17.78;63.00;102270.28;5040875;28;20021;-74
2021/08/29 02:31:28;;;;;;;3.53;2.13;;;;;;;17.56;64.01;102271.31;5040366;28;20118;-74
2021/08/29 02:33:53;;;;;;;4.72;2.33;;;;;;;17.98;62.81;102275.50;5040869;28;20045;-74
2021/08/29 02:36:19;;;;;;;11.20;3.50;;;;;;;17.32;64.43;102275.97;5039966;28;20029;-74
2021/08/29 02:38:46;;;;;;;5.25;2.50;;;;;;;17.48;63.99;102276.09;5042277;28;20340;-74
2021/08/29 02:41:11;;;;;;;6.65;3.10;;;;;;;16.60;67.64;102285.28;5040213;28;20029;-74
2021/08/29 02:43:36;;;;;;;5.82;2.78;;;;;;;17.55;64.02;102266.94;5024212;28;20036;-73
2021/08/29 02:46:02;;;;;;;1.60;1.40;;;;;;;18.39;61.11;102263.72;5023677;28;20102;-73
2021/08/29 02:48:28;;;;;;;4.10;2.58;;;;;;;17.40;64.71;102271.16;5040464;28;20042;-74
2021/08/29 02:50:54;;;;;;;4.55;2.40;;;;;;;17.10;65.66;102272.56;5024191;28;20254;-74
2021/08/29 02:53:19;;;;;;;5.88;3.45;;;;;;;17.70;64.10;102270.66;5023482;28;20092;-74
2021/08/29 02:55:48;;;;;;;6.03;2.85;;;;;;;17.43;64.80;102273.69;5040340;28;20029;-74
2021/08/29 02:58:13;;;;;;;1.80;1.70;;;;;;;17.78;63.08;102267.63;5040203;28;20071;-71
2021/08/29 03:00:39;;;;;;;4.57;2.72;;;;;;;17.70;63.43;102260.06;5007436;28;20028;-71
2021/08/29 03:03:05;;;;;;;9.18;3.63;;;;;;;16.68;67.42;102258.50;5041851;28;20087;-71
2021/08/29 03:05:30;;;;;;;3.20;2.50;;;;;;;17.44;64.14;102254.22;5040714;28;20334;-71
2021/08/29 03:07:56;;;;;;;3.80;2.30;;;;;;;17.97;62.39;102249.94;5040165;28;20021;-71
2021/08/29 03:10:22;;;;;;;5.80;2.42;;;;;;;17.16;65.64;102251.97;5039906;28;20037;-71
2021/08/29 03:12:47;;;;;;;4.38;2.72;;;;;;;16.74;67.38;102252.97;5041438;28;20324;-71
2021/08/29 03:15:13;;;;;;;5.95;2.35;;;;;;;16.98;66.50;102255.47;5023197;28;20075;-71
2021/08/29 03:17:38;;;;;;;5.32;2.17;;;;;;;17.43;64.27;102249.84;5023632;28;20017;-71
2021/08/29 03:20:07;;;;;;;7.32;2.63;;;;;;;17.54;64.38;102249.34;5023651;28;20054;-71
2021/08/29 03:22:33;;;;;;;4.88;2.75;;;;;;;17.15;65.52;102246.75;5039637;28;20441;-71
2021/08/29 03:24:59;;;;;;;4.63;2.30;;;;;;;17.21;65.47;102250.00;5040334;28;20342;-71
2021/08/29 03:27:24;;;;;;;7.82;3.28;;;;;;;16.68;67.87;102253.22;5040274;28;20092;-71
2021/08/29 03:29:50;;;;;;;6.22;3.10;;;;;;;16.30;69.33;102255.75;5039822;28;20045;-71
2021/08/29 03:32:15;;;;;;;3.30;2.17;;;;;;;16.96;66.38;102246.75;5040369;28;20029;-71
2021/08/29 03:34:41;;;;;;;9.50;4.15;;;;;;;16.59;68.38;102246.56;5039717;28;20324;-71
2021/08/29 03:37:06;;;;;;;13.05;4.00;;;;;;;16.35;70.07;102240.53;5023351;28;20038;-71
2021/08/29 03:39:32;;;;;;;5.10;3.05;;;;;;;16.94;66.88;102244.16;5040474;28;20083;-71
2021/08/29 03:41:58;;;;;;;7.78;3.95;;;;;;;16.61;69.01;102246.50;5039696;28;20030;-71
2021/08/29 03:44:23;;;;;;;10.02;3.55;;;;;;;16.52;69.50;102247.75;5022762;28;20066;-71
2021/08/29 03:46:49;;;;;;;8.85;3.80;;;;;;;16.21;70.76;102243.78;5022958;28;20336;-71
2021/08/29 03:49:14;;;;;;;6.70;3.28;;;;;;;16.57;69.58;102235.19;5040425;28;20096;-72
2021/08/29 03:51:41;;;;;;;7.18;2.88;;;;;;;16.42;70.16;102235.84;5041046;28;20033;-72
2021/08/29 03:54:06;;;;;;;5.60;2.70;;;;;;;16.40;69.81;102235.91;5039475;28;20029;-72
2021/08/29 03:56:32;;;;;;;6.68;3.17;;;;;;;16.46;69.89;102235.66;5038790;28;20022;-72
2021/08/29 03:58:58;;;;;;;3.33;1.92;;;;;;;17.09;66.03;102229.38;5039316;28;20041;-72
2021/08/29 04:01:23;;;;;;;8.85;3.53;;;;;;;16.58;69.95;102228.97;5039876;28;20080;-72
2021/08/29 04:03:49;;;;;;;10.73;3.95;;;;;;;16.35;70.76;102234.41;5040556;28;20036;-72
2021/08/29 04:06:14;;;;;;;1.90;1.80;;;;;;;16.81;67.34;102235.88;5039951;28;20045;-72
2021/08/29 04:08:48;;;;;;;2.80;2.00;;;;;;;17.18;66.84;102228.09;5022855;28;20044;-72
2021/08/29 04:11:13;;;;;;;9.30;3.40;;;;;;;16.87;68.90;102225.06;5039970;28;20087;-72
2021/08/29 04:13:39;;;;;;;4.45;2.92;;;;;;;16.50;70.06;102224.03;5039275;28;20041;-72
2021/08/29 04:16:05;;;;;;;2.17;1.98;;;;;;;17.27;65.61;102217.91;5040402;28;20029;-72
2021/08/29 04:18:41;;;;;;;3.63;2.08;;;;;;;17.23;67.67;102226.09;5038744;28;20041;-71
2021/08/29 04:21:07;;;;;;;3.05;1.95;;;;;;;16.97;68.17;102228.16;5040258;28;20029;-71
2021/08/29 04:23:33;;;;;;;3.08;2.25;;;;;;;16.83;67.69;102214.69;5038735;28;20061;-71
2021/08/29 04:25:59;;;;;;;3.85;2.03;;;;;;;17.16;66.07;102206.13;5040233;28;20052;-71
2021/08/29 04:28:24;;;;;;;2.90;2.10;;;;;;;17.61;64.13;102215.47;5038910;28;20025;-71
2021/08/29 04:30:49;;;;;;;7.05;2.15;;;;;;;17.13;68.71;102216.84;5040282;28;20369;-71
2021/08/29 04:33:15;;;;;;;6.60;2.33;;;;;;;17.01;66.81;102216.50;5022177;28;20035;-71
2021/08/29 04:35:40;;;;;;;5.65;2.20;;;;;;;17.67;63.64;102206.38;5040264;28;20037;-71
2021/08/29 04:38:06;;;;;;;6.30;2.38;;;;;;;17.15;68.58;102210.53;5022643;28;20036;-71
2021/08/29 04:40:31;;;;;;;6.53;2.50;;;;;;;17.14;68.34;102215.94;5022062;28;20035;-71
2021/08/29 04:42:56;;;;;;;1.88;1.58;;;;;;;17.19;67.20;102211.25;5022668;28;20029;-72
2021/08/29 04:45:22;;;;;;;3.13;2.15;;;;;;;17.45;64.73;102210.91;5038483;28;20037;-72
2021/08/29 04:47:47;;;;;;;7.85;3.00;;;;;;;16.65;69.47;102217.19;5039787;28;20049;-72
2021/08/29 04:50:13;;;;;;;5.80;2.10;;;;;;;17.30;65.27;102216.94;5039500;28;20049;-71
2021/08/29 04:52:38;;;;;;;10.93;3.15;;;;;;;16.50;71.64;102233.75;5040132;28;20033;-71
2021/08/29 04:55:04;;;;;;;11.50;3.33;;;;;;;16.82;69.79;102229.66;5038843;28;20241;-72
2021/08/29 04:57:29;;;;;;;3.90;1.70;;;;;;;17.42;64.64;102226.06;5039564;28;20049;-72
2021/08/29 04:59:55;;;;;;;3.55;2.10;;;;;;;17.37;66.04;102223.66;5022329;28;20022;-72
2021/08/29 05:02:20;;;;;;;4.85;1.90;;;;;;;17.63;63.89;102217.09;5039375;28;20120;-71
2021/08/29 05:04:46;;;;;;;5.65;1.95;;;;;;;17.96;62.72;102223.50;5038839;28;20072;-71
2021/08/29 05:07:11;;;;;;;6.95;2.50;;;;;;;18.00;63.28;102222.41;5021796;28;20246;-71
2021/08/29 05:09:37;;;;;;;2.20;1.83;;;;;;;17.95;62.62;102222.63;5039982;28;20029;-71
2021/08/29 05:12:02;;;;;;;7.68;2.42;;;;;;;17.17;65.93;102221.06;5042343;28;20056;-71
2021/08/29 05:14:28;;;;;;;10.10;2.70;;;;;;;17.62;63.84;102218.03;5041903;28;20189;-71
2021/08/29 05:16:53;;;;;;;3.13;1.58;;;;;;;18.02;63.13;102224.03;5043587;28;20033;-71
2021/08/29 05:19:18;;;;;;;2.80;1.40;;;;;;;18.28;61.25;102211.28;5041775;28;20052;-71
2021/08/29 05:21:44;;;;;;;2.80;1.50;;;;;;;18.37;61.02;102218.75;5043194;28;20070;-71
2021/08/29 05:24:09;;;;;;;6.15;2.00;;;;;;;17.52;64.84;102216.78;5041895;28;20082;-71
2021/08/29 05:26:35;;;;;;;5.43;2.42;;;;;;;17.61;65.66;102220.78;5042667;28;20033;-71
2021/08/29 05:29:01;;;;;;;3.72;1.50;;;;;;;18.17;61.95;102221.53;5041868;28;20025;-71
2021/08/29 05:31:26;;;;;;;4.53;1.73;;;;;;;18.33;60.97;102216.31;5024935;28;20309;-71
2021/08/29 05:33:51;;;;;;;5.35;1.98;;;;;;;17.88;63.20;102221.22;5042115;28;20376;-71
2021/08/29 05:36:17;;;;;;;1.55;1.20;;;;;;;18.03;62.36;102220.47;5041380;28;20033;-71
2021/08/29 05:38:42;;;;;;;4.88;1.80;;;;;;;18.25;61.49;102219.38;5042987;28;20221;-71
2021/08/29 05:41:08;;;;;;;3.67;1.70;;;;;;;18.39;61.00;102223.94;5041781;28;20026;-71
2021/08/29 05:43:33;;;;;;;4.40;1.58;;;;;;;18.41;60.58;102230.06;5041272;28;20033;-71
2021/08/29 05:45:58;;;;;;;9.15;2.92;;;;;;;18.12;61.55;102226.22;5024997;28;20048;-71
2021/08/29 05:48:24;;;;;;;5.45;2.28;;;;;;;18.00;62.86;102222.41;5042251;28;20083;-71
2021/08/29 05:50:49;;;;;;;3.00;1.38;;;;;;;18.17;61.81;102233.03;5025383;28;20033;-73
2021/08/29 05:53:15;;;;;;;7.75;1.98;;;;;;;18.48;60.73;102223.50;5042218;28;20253;-70
2021/08/29 05:55:40;;;;;;;6.63;2.13;;;;;;;18.12;62.28;102239.47;5041404;28;20029;-70
2021/08/29 05:58:05;;;;;;;3.97;1.63;;;;;;;18.06;62.51;102235.34;5042572;28;20381;-70
2021/08/29 06:00:31;;;;;;;2.10;1.60;;;;;;;18.18;61.83;102228.56;5042109;28;20045;-70
2021/08/29 06:02:56;;;;;;;1.52;1.10;;;;;;;18.61;60.01;102235.19;5042639;28;20216;-70
2021/08/29 06:05:22;;;;;;;6.22;2.42;;;;;;;18.01;63.41;102226.78;5024272;28;20044;-70
2021/08/29 06:07:47;;;;;;;5.72;2.08;;;;;;;18.12;61.63;102227.09;5042382;28;20040;-70
2021/08/29 06:10:13;;;;;;;4.43;2.25;;;;;;;17.93;63.92;102231.59;5041931;28;20049;-70
2021/08/29 06:12:39;;;;;;;3.47;1.70;;;;;;;18.48;60.43;102225.28;5042844;28;20049;-70
2021/08/29 06:15:06;;;;;;;11.93;3.03;;;;;;;17.44;66.09;102227.72;5041316;28;20056;-72
2021/08/29 06:17:31;;;;;;;2.28;1.40;;;;;;;18.23;61.60;102231.84;5040693;28;20075;-72
2021/08/29 06:19:56;;;;;;;10.07;2.47;;;;;;;18.14;61.89;102221.72;5041343;28;20030;-72
2021/08/29 06:22:22;;;;;;;5.53;1.90;;;;;;;18.34;60.82;102229.50;5040399;28;20384;-72
2021/08/29 06:24:47;;;;;;;2.47;1.42;;;;;;;18.47;60.80;102221.78;5041224;28;20035;-72
2021/08/29 06:27:12;;;;;;;7.88;2.10;;;;;;;18.16;61.85;102226.00;5040769;28;20029;-72
2021/08/29 06:29:38;;;;;;;7.15;2.22;;;;;;;17.73;65.23;102222.78;5042068;28;20104;-72
2021/08/29 06:32:04;;;;;;;6.13;2.50;;;;;;;17.99;62.79;102220.69;5040675;28;20052;-73
2021/08/29 06:34:29;;;;;;;2.70;1.70;;;;;;;18.07;62.32;102226.47;5052046;28;20051;-71
2021/08/29 06:36:55;;;;;;;1.73;1.25;;;;;;;18.56;60.32;102215.13;5049167;28;20271;-72
2021/08/29 06:39:20;;;;;;;1.98;1.50;;;;;;;18.45;61.07;102220.16;5055022;28;20240;-72
2021/08/29 06:41:45;;;;;;;5.93;2.20;;;;;;;18.22;61.97;102216.88;5049667;28;20268;-72
2021/08/29 06:44:11;;;;;;;4.10;1.90;;;;;;;18.17;61.83;102218.91;5040471;28;20037;-72
2021/08/29 06:46:36;;;;;;;5.95;1.90;;;;;;;18.15;61.86;102213.66;5041795;28;20045;-72
2021/08/29 06:49:02;;;;;;;6.50;1.92;;;;;;;18.14;62.22;102219.91;5040548;28;20108;-72
2021/08/29 06:51:27;;;;;;;3.85;1.73;;;;;;;18.32;61.17;102217.25;5031411;28;20032;-72
2021/08/29 06:53:53;;;;;;;2.70;1.50;;;;;;;18.27;61.63;102220.16;5040607;28;20258;-72
2021/08/29 06:56:18;;;;;;;5.57;2.20;;;;;;;18.13;63.47;102218.19;5040832;28;20041;-72
2021/08/29 06:58:43;;;;;;;2.97;1.52;;;;;;;18.34;61.52;102220.69;5040144;28;20053;-72
2021/08/29 07:01:09;;;;;;;6.82;2.40;;;;;;;18.12;62.60;102221.78;5041280;28;20033;-72
2021/08/29 07:03:34;;;;;;;6.15;1.92;;;;;;;18.20;61.85;102214.28;5040833;28;20378;-72
2021/08/29 07:06:00;;;;;;;3.20;1.23;;;;;;;18.68;59.99;102210.97;5040204;28;20108;-72
2021/08/29 07:08:25;;;;;;;8.57;2.53;;;;;;;18.35;62.07;102214.44;5036530;28;20088;-72
2021/08/29 07:10:50;;;;;;;3.22;1.73;;;;;;;18.70;59.60;102209.97;5040202;28;20040;-72
2021/08/29 07:13:16;;;;;;;3.55;1.50;;;;;;;18.61;60.30;102208.66;5040469;28;20040;-72
2021/08/29 07:15:41;;;;;;;2.20;1.30;;;;;;;18.63;60.10;102216.53;5039913;28;20105;-72
2021/08/29 07:18:07;;;;;;;4.75;2.05;;;;;;;18.48;60.88;102212.88;5039970;28;20045;-72
2021/08/29 07:20:32;;;;;;;4.63;2.38;;;;;;;18.32;63.08;102209.28;5039427;28;20236;-73
2021/08/29 07:22:58;;;;;;;2.20;1.33;;;;;;;18.76;59.45;102206.13;5039944;28;20033;-72
2021/08/29 07:25:23;;;;;;;4.30;1.40;;;;;;;18.55;60.28;102208.94;5040478;28;20152;-72
2021/08/29 07:27:49;;;;;;;2.70;1.58;;;;;;;18.51;60.83;102219.81;5039757;28;20096;-72
2021/08/29 07:30:14;;;;;;;3.78;1.90;;;;;;;18.38;61.41;102220.44;5040473;28;20049;-72
2021/08/29 07:32:39;;;;;;;7.93;2.17;;;;;;;18.65;60.33;102219.94;5040744;28;20037;-72
2021/08/29 07:35:05;;;;;;;10.65;2.47;;;;;;;18.02;63.77;102220.53;5040970;28;20036;-72
2021/08/29 07:37:31;;;;;;;3.53;1.15;;;;;;;18.67;60.40;102207.47;5039242;28;20604;-72
2021/08/29 07:39:56;;;;;;;3.25;1.77;;;;;;;18.73;60.01;102206.28;5040698;28;20040;-72
2021/08/29 07:42:22;;;;;;;6.53;2.03;;;;;;;18.73;59.99;102196.50;5039054;28;20216;-72
2021/08/29 07:44:48;;;;;;;8.30;2.35;;;;;;;18.54;64.21;102209.06;5023005;28;20029;-72
2021/08/29 07:47:14;;;;;;;3.50;1.70;;;;;;;18.94;59.37;102206.97;5039820;28;20049;-72
2021/08/29 07:49:39;;;;;;;3.63;1.58;;;;;;;19.04;58.97;102207.31;5040537;28;20324;-72
2021/08/29 07:52:05;;;;;;;4.68;1.40;;;;;;;18.89;59.49;102198.38;5040587;28;20033;-72
2021/08/29 07:54:30;;;;;;;3.70;1.70;;;;;;;18.73;60.35;102208.94;5040135;28;20810;-72
2021/08/29 07:56:56;;;;;;;2.75;1.48;;;;;;;18.99;58.93;102210.19;5039467;28;20034;-72
2021/08/29 07:59:21;;;;;;;2.45;1.30;;;;;;;19.02;58.95;102206.53;5039781;28;20033;-72
2021/08/29 08:01:46;;;;;;;3.25;1.58;;;;;;;19.01;58.86;102207.47;5040445;28;20055;-72
2021/08/29 08:04:12;;;;;;;2.40;1.40;;;;;;;18.96;59.31;102199.75;5038842;28;20206;-72
2021/08/29 08:06:37;;;;;;;5.85;1.95;;;;;;;18.68;60.26;102203.88;5039805;28;20033;-71
2021/08/29 08:09:03;;;;;;;9.38;2.70;;;;;;;18.80;63.25;102200.53;5028479;28;20042;-71
2021/08/29 08:11:28;;;;;;;3.38;1.65;;;;;;;18.92;59.53;102191.09;5041027;28;20094;-71
2021/08/29 08:13:54;;;;;;;3.92;1.83;;;;;;;18.81;60.21;102201.47;5059168;28;20037;-71
2021/08/29 08:16:19;;;;;;;2.55;1.30;;;;;;;18.99;59.14;102208.41;5059688;28;20051;-71
2021/08/29 08:18:45;;;;;;;13.20;3.15;;;;;;;18.57;61.99;102208.88;5059201;28;20031;-71
2021/08/29 08:21:10;;;;;;;7.00;2.58;;;;;;;18.54;65.26;102209.91;5060133;28;20033;-71
2021/08/29 08:23:35;;;;;;;3.13;1.27;;;;;;;18.73;61.03;102211.56;5059645;28;20380;-71
2021/08/29 08:26:01;;;;;;;6.40;1.92;;;;;;;18.92;61.74;102207.03;5042268;28;20036;-71
2021/08/29 08:28:26;;;;;;;3.08;1.33;;;;;;;18.89;62.38;102201.03;5059513;28;20355;-71
2021/08/29 08:30:52;;;;;;;2.35;1.23;;;;;;;18.96;60.18;102200.63;5059054;28;20036;-71
2021/08/29 08:33:17;;;;;;;1.92;1.23;;;;;;;18.95;59.70;102200.69;5054577;28;20240;-71
2021/08/29 08:35:43;;;;;;;2.20;1.33;;;;;;;19.06;59.27;102198.28;5029293;28;20260;-71
2021/08/29 08:38:08;;;;;;;1.98;1.15;;;;;;;18.89;60.89;102207.19;5040038;28;20032;-71
2021/08/29 08:40:40;;;;;;;3.88;1.60;;;;;;;18.99;59.50;102196.91;5039466;28;20051;-71
2021/08/29 08:43:06;;;;;;;4.72;2.42;;;;;;;19.01;59.99;102207.47;5038704;28;20032;-71
2021/08/29 08:45:31;;;;;;;2.45;1.25;;;;;;;18.95;59.66;102203.34;5051417;28;20049;-71
2021/08/29 08:47:59;;;;;;;3.85;1.85;;;;;;;18.88;59.87;102200.19;5043619;28;20402;-71
2021/08/29 08:50:24;;;;;;;6.07;1.95;;;;;;;18.94;59.69;102201.66;5042113;28;20201;-71
2021/08/29 08:52:50;;;;;;;4.03;1.80;;;;;;;19.02;59.57;102211.84;5009288;28;20049;-71
2021/08/29 08:55:15;;;;;;;6.65;1.85;;;;;;;19.11;59.31;102209.53;5022256;28;20024;-72
2021/08/29 08:57:40;;;;;;;5.63;2.40;;;;;;;19.07;59.78;102208.00;5042652;28;20156;-72
2021/08/29 09:00:06;;;;;;;7.05;2.38;;;;;;;19.04;60.33;102199.34;5025921;28;20029;-72
2021/08/29 09:02:31;;;;;;;2.40;1.35;;;;;;;19.06;59.28;102200.94;5036311;28;20329;-72
2021/08/29 09:04:57;;;;;;;2.70;1.52;;;;;;;19.02;59.76;102204.72;5016166;28;20029;-72
2021/08/29 09:07:22;;;;;;;5.10;1.88;;;;;;;18.99;60.08;102211.06;5042995;28;20313;-72
2021/08/29 09:09:48;;;;;;;4.00;1.73;;;;;;;19.02;60.10;102212.69;5042292;28;20030;-72
2021/08/29 09:12:13;;;;;;;4.13;1.80;;;;;;;19.00;59.91;102214.56;5042806;28;20214;-72
2021/08/29 09:14:43;;;;;;;1.80;1.40;;;;;;;19.10;59.77;102212.25;5043278;28;20037;-72
2021/08/29 09:17:26;;;;;;;8.20;2.25;;;;;;;19.04;60.15;102209.97;5043261;28;20033;-72
2021/08/29 09:20:12;;;;;;;4.25;1.60;;;;;;;18.62;61.56;102212.16;5043202;28;20344;-72
2021/08/29 09:22:39;;;;;;;4.78;1.30;;;;;;;18.85;60.85;102210.13;5025021;28;20370;-72
2021/08/29 09:25:05;;;;;;;5.95;1.85;;;;;;;18.79;63.71;102204.16;5053577;28;20068;-72
2021/08/29 09:27:30;;;;;;;11.70;2.92;;;;;;;18.47;65.11;102210.31;5044876;28;20029;-72
2021/08/29 09:29:55;;;;;;;5.57;2.45;;;;;;;18.89;60.53;102209.00;5061781;28;20036;-71
2021/08/29 09:32:21;;;;;;;3.40;1.65;;;;;;;18.89;60.78;102204.53;5028150;28;20025;-71
2021/08/29 09:34:57;;;;;;;6.40;2.13;;;;;;;19.02;61.86;102207.38;5030937;28;20224;-72
2021/08/29 09:37:22;;;;;;;2.80;1.23;;;;;;;18.97;60.10;102210.31;5042389;28;20093;-72
2021/08/29 09:39:48;;;;;;;11.07;2.83;;;;;;;18.75;63.78;102207.03;5042850;28;20033;-72
2021/08/29 09:42:13;;;;;;;3.05;1.33;;;;;;;19.04;59.91;102202.00;5042404;28;20033;-71
2021/08/29 09:44:38;;;;;;;4.90;1.77;;;;;;;19.09;60.55;102203.44;5042701;28;20049;-71
2021/08/29 09:47:05;;;;;;;6.60;2.15;;;;;;;18.94;60.81;102201.66;5021530;28;20056;-71
2021/08/29 09:49:34;;;;;;;2.47;1.63;;;;;;;19.15;59.63;102204.91;5038749;28;20069;-71
2021/08/29 09:52:00;;;;;;;3.25;1.50;;;;;;;19.11;59.89;102203.38;5025240;28;20123;-71
2021/08/29 09:54:34;;;;;;;4.63;1.60;;;;;;;19.13;59.72;102207.63;5040613;28;20033;-71
2021/08/29 09:57:01;;;;;;;6.65;2.35;;;;;;;18.71;61.60;102203.69;5042183;28;20033;-71
2021/08/29 09:59:51;;;;;;;3.63;1.30;;;;;;;19.11;59.81;102195.41;5040622;28;20025;-71
2021/08/29 10:02:26;;;;;;;2.45;1.70;;;;;;;19.11;59.78;102200.72;5041919;28;20029;-71
2021/08/29 10:05:14;;;;;;;2.33;1.20;;;;;;;19.08;60.38;102204.41;5025554;28;20074;-71
2021/08/29 10:08:04;;;;;;;2.20;1.27;;;;;;;19.10;59.94;102197.22;5041286;28;20104;-71
2021/08/29 10:10:32;;;;;;;4.13;1.70;;;;;;;18.93;61.48;102200.78;5040710;28;20041;-71
2021/08/29 10:12:58;;;;;;;6.90;2.20;;;;;;;19.08;60.12;102198.22;5041171;28;20037;-71
2021/08/29 10:15:24;;;;;;;9.10;1.83;;;;;;;19.09;60.02;102197.28;5020342;28;20032;-72
2021/08/29 10:17:52;;;;;;;5.97;1.65;;;;;;;19.11;60.69;102193.59;5041100;28;20097;-72
2021/08/29 10:20:24;;;;;;;6.10;1.92;;;;;;;19.20;59.76;102181.63;5040367;28;20029;-71
2021/08/29 10:22:50;;;;;;;11.80;2.13;;;;;;;19.12;60.26;102189.16;5040942;28;20041;-71
2021/08/29 10:25:17;;;;;;;3.33;1.63;;;;;;;18.93;61.34;102187.50;5020927;28;20036;-71
2021/08/29 10:27:44;;;;;;;1.52;1.13;;;;;;;19.23;59.57;102178.78;5036050;28;20029;-71
2021/08/29 10:30:10;;;;;;;2.38;1.67;;;;;;;19.36;59.30;102186.94;5048310;28;20033;-71
2021/08/29 10:32:44;;;;;;;5.88;1.95;;;;;;;19.10;60.44;102180.41;5060087;28;20044;-71
2021/08/29 10:35:10;;;;;;;2.55;1.40;;;;;;;19.33;59.34;102174.66;5060503;28;20060;-71
2021/08/29 10:37:39;;;;;;;3.40;1.63;;;;;;;19.34;59.38;102180.84;5061316;28;20028;-71
2021/08/29 10:40:05;;;;;;;8.00;1.92;;;;;;;19.28;60.04;102178.53;5060559;28;20036;-71
2021/08/29 10:42:34;;;;;;;6.10;1.52;;;;;;;19.24;59.70;102177.84;5039945;28;20232;-71
2021/08/29 10:44:59;;;;;;;;;;;;;;;19.11;60.33;102172.34;5040880;28;20037;-71
2021/08/29 10:47:25;;;;;;;3.40;1.37;;;;;;;19.17;59.87;102181.78;5040535;28;19971;-71
2021/08/29 10:49:51;;;;;;;2.25;1.45;;;;;;;19.21;60.48;102177.16;5040348;28;20052;-71
2021/08/29 10:52:16;;;;;;;3.28;1.48;;;;;;;19.18;59.92;102168.41;5022522;28;20037;-71
2021/08/29 10:54:52;;;;;;;4.70;1.75;;;;;;;19.22;60.02;102161.13;5040136;28;20401;-72
2021/08/29 10:57:47;;;;;;;5.95;1.90;;;;;;;19.22;60.13;102165.59;5040955;28;20060;-71
2021/08/29 11:00:17;;;;;;;2.50;1.42;;;;;;;19.12;60.62;102167.94;5035856;28;20071;-71
2021/08/29 11:02:47;;;;;;;5.45;1.55;;;;;;;18.90;62.68;102166.44;5039963;28;20025;-71
2021/08/29 11:05:33;;;;;;;7.25;2.72;;;;;;;18.78;62.48;102164.44;5039429;28;20313;-71
2021/08/29 11:07:59;;;;;;;2.40;0.93;;;;;;;19.10;60.63;102172.44;5039980;28;20210;-71
2021/08/29 11:10:41;;;;;;;8.70;2.10;;;;;;;19.13;60.74;102164.31;5040482;28;20096;-71
2021/08/29 11:13:42;;;;;;;4.55;1.58;;;;;;;19.18;60.28;102163.09;5039983;28;20048;-70
2021/08/29 11:16:17;;;;;;;1.73;1.13;;;;;;;19.28;59.85;102162.59;5018984;28;20110;-71
2021/08/29 11:19:03;;;;;;;2.47;1.38;;;;;;;19.21;60.23;102167.41;5026748;28;20360;-71
2021/08/29 11:21:34;;;;;;;1.73;0.70;;;;;;;19.21;60.37;102169.19;5050823;28;20025;-71
2021/08/29 11:23:59;;;;;;;2.17;1.05;;;;;;;19.20;60.96;102178.97;5049217;28;20039;-71
2021/08/29 11:26:28;;;;;;;4.75;1.20;;;;;;;19.23;60.83;102168.19;5059323;28;20119;-71